Time;durP1;ratioP1;P1;durP2;ratioP2;P2;SDS_P1;SDS_P2;PMS_P1;PMS_P2;Temp;Humidity;BMP_temperature;BMP_pressure;BME280_temperature;BME280_humidity;BME280_pressure;Samples;Min_cycle;Max_cycle;Signal;HPM_P1;HPM_P2
2021/07/22 00:01:18;;;;;;;6.83;4.28;;;16.80;99.90;;;;;;1968229;71;21470;-79
2021/07/22 00:03:44;;;;;;;4.20;3.17;;;16.70;99.90;;;;;;1968307;73;21422;-80
2021/07/22 00:06:10;;;;;;;14.07;3.95;;;16.70;99.90;;;;;;1968304;71;21551;-79
2021/07/22 00:08:36;;;;;;;6.78;3.75;;;16.70;99.90;;;;;;1968302;71;21135;-80
2021/07/22 00:11:02;;;;;;;5.55;3.87;;;16.60;99.90;;;;;;1968350;73;21144;-79
2021/07/22 00:13:28;;;;;;;5.30;4.15;;;16.60;99.90;;;;;;1968088;72;21117;-80
2021/07/22 00:15:55;;;;;;;12.70;4.05;;;16.60;99.90;;;;;;1968319;73;21026;-79
2021/07/22 00:18:21;;;;;;;8.13;3.90;;;16.60;99.90;;;;;;1968324;73;21062;-79
2021/07/22 00:20:49;;;;;;;4.08;3.67;;;16.50;99.90;;;;;;1968324;72;21128;-79
2021/07/22 00:23:15;;;;;;;5.33;4.03;;;16.50;99.90;;;;;;1967580;72;21226;-79
2021/07/22 00:25:41;;;;;;;4.62;3.75;;;16.50;99.90;;;;;;1968264;73;21026;-79
2021/07/22 00:28:19;;;;;;;7.92;4.03;;;16.40;99.90;;;;;;1968120;73;21119;-78
2021/07/22 00:30:45;;;;;;;4.70;3.75;;;16.40;99.90;;;;;;1968300;73;21023;-79
2021/07/22 00:33:14;;;;;;;5.45;3.75;;;16.40;99.90;;;;;;1968176;73;21039;-80
2021/07/22 00:35:40;;;;;;;14.40;4.28;;;16.40;99.90;;;;;;1968078;73;21085;-78
2021/07/22 00:38:06;;;;;;;4.15;3.42;;;16.40;99.90;;;;;;1968203;71;21070;-79
2021/07/22 00:40:32;;;;;;;4.78;3.60;;;16.30;99.90;;;;;;1968057;73;21034;-79
2021/07/22 00:42:58;;;;;;;6.22;3.60;;;16.30;99.90;;;;;;1968312;73;21106;-80
2021/07/22 00:45:25;;;;;;;7.53;3.62;;;16.20;99.90;;;;;;1968255;73;21049;-79
2021/07/22 00:47:51;;;;;;;5.35;3.80;;;16.10;99.90;;;;;;1968346;73;21066;-80
2021/07/22 00:50:17;;;;;;;4.53;3.08;;;16.10;99.90;;;;;;1966987;72;21074;-80
2021/07/22 00:52:43;;;;;;;8.25;4.40;;;16.10;99.90;;;;;;1968166;73;21055;-80
2021/07/22 00:55:09;;;;;;;5.22;3.72;;;16.20;99.90;;;;;;1968078;73;21163;-80
2021/07/22 00:57:37;;;;;;;7.47;3.87;;;16.20;99.90;;;;;;1968252;73;21494;-80
2021/07/22 01:00:03;;;;;;;4.83;3.67;;;16.20;99.90;;;;;;1968069;73;21535;-79
2021/07/22 01:02:29;;;;;;;8.58;3.77;;;16.20;99.90;;;;;;1968151;73;21611;-78
2021/07/22 01:04:57;;;;;;;10.43;3.27;;;16.10;99.90;;;;;;1968127;73;21540;-78
2021/07/22 01:07:23;;;;;;;6.37;4.03;;;16.00;99.90;;;;;;1967928;71;21098;-80
2021/07/22 01:09:49;;;;;;;6.87;3.72;;;16.00;99.90;;;;;;1968181;73;21070;-79
2021/07/22 01:12:15;;;;;;;7.05;3.60;;;15.90;99.90;;;;;;1966596;73;21144;-79
2021/07/22 01:14:43;;;;;;;11.95;3.90;;;15.80;99.90;;;;;;1967544;73;21146;-79
2021/07/22 01:17:09;;;;;;;7.10;3.83;;;15.80;99.90;;;;;;1968186;73;21109;-79
2021/07/22 01:19:35;;;;;;;8.05;4.10;;;15.70;99.90;;;;;;1968258;73;21109;-79
2021/07/22 01:22:01;;;;;;;5.87;4.12;;;15.70;99.90;;;;;;1968025;73;21197;-79
2021/07/22 01:24:29;;;;;;;9.78;3.90;;;15.70;99.90;;;;;;1968120;73;21062;-79
2021/07/22 01:26:55;;;;;;;5.80;3.65;;;15.70;99.90;;;;;;1964547;72;21102;-80
2021/07/22 01:29:21;;;;;;;9.18;3.95;;;15.70;99.90;;;;;;1968052;73;21027;-80
2021/07/22 01:31:47;;;;;;;4.20;3.45;;;15.70;99.90;;;;;;1968075;73;21116;-79
2021/07/22 01:34:13;;;;;;;7.65;4.00;;;15.70;99.90;;;;;;1968194;73;21112;-80
2021/07/22 01:36:40;;;;;;;4.20;3.40;;;15.60;99.90;;;;;;1967992;73;21061;-80
2021/07/22 01:39:06;;;;;;;5.85;3.98;;;15.60;99.90;;;;;;1968105;73;21126;-80
2021/07/22 01:41:33;;;;;;;12.82;3.87;;;15.60;99.90;;;;;;1968105;73;21148;-81
2021/07/22 01:44:00;;;;;;;8.13;4.08;;;15.60;99.90;;;;;;1967674;73;21568;-80
2021/07/22 01:46:28;;;;;;;5.12;4.08;;;15.60;99.90;;;;;;1968057;73;21049;-79
2021/07/22 01:48:54;;;;;;;5.75;3.75;;;15.60;99.90;;;;;;1968021;72;21140;-79
2021/07/22 01:51:20;;;;;;;3.52;3.10;;;15.60;99.90;;;;;;1968026;73;21070;-81
2021/07/22 01:53:46;;;;;;;5.55;3.65;;;15.60;99.90;;;;;;1968118;73;21136;-80
2021/07/22 01:56:12;;;;;;;6.17;3.60;;;15.50;99.90;;;;;;1967976;73;21031;-80
2021/07/22 01:58:38;;;;;;;4.83;3.60;;;15.50;99.90;;;;;;1967888;73;21490;-80
2021/07/22 02:01:04;;;;;;;5.45;4.05;;;15.50;99.90;;;;;;1967953;73;21425;-80
2021/07/22 02:03:30;;;;;;;4.95;3.42;;;15.50;99.90;;;;;;1967887;73;21476;-80
2021/07/22 02:05:56;;;;;;;7.30;4.20;;;15.40;99.90;;;;;;1968028;73;21415;-80
2021/07/22 02:08:22;;;;;;;5.50;3.98;;;15.40;99.90;;;;;;1968026;73;21457;-80
2021/07/22 02:10:49;;;;;;;6.20;3.83;;;15.40;99.90;;;;;;1967874;73;21549;-80
2021/07/22 02:13:15;;;;;;;4.28;3.87;;;15.30;99.90;;;;;;1967945;73;21523;-80
2021/07/22 02:15:41;;;;;;;8.78;4.08;;;15.30;99.90;;;;;;1967915;73;21043;-80
2021/07/22 02:18:07;;;;;;;5.95;3.62;;;15.30;99.90;;;;;;1967924;73;21124;-80
2021/07/22 02:20:33;;;;;;;6.72;4.33;;;15.30;99.90;;;;;;1967784;71;21116;-80
2021/07/22 02:22:59;;;;;;;5.60;3.65;;;15.20;99.90;;;;;;1968192;73;21101;-80
2021/07/22 02:25:25;;;;;;;5.67;3.85;;;15.20;99.90;;;;;;1967824;73;21023;-80
2021/07/22 02:27:51;;;;;;;5.00;3.58;;;15.10;99.90;;;;;;1968029;73;21057;-80
2021/07/22 02:30:18;;;;;;;4.37;3.55;;;15.10;99.90;;;;;;1967780;71;21054;-80
2021/07/22 02:32:44;;;;;;;8.40;3.90;;;15.10;99.90;;;;;;1967925;71;21066;-80
2021/07/22 02:35:10;;;;;;;4.90;3.77;;;15.00;99.90;;;;;;1967774;71;21030;-80
2021/07/22 02:37:36;;;;;;;4.10;3.77;;;15.00;99.90;;;;;;1969541;73;21108;-80
2021/07/22 02:40:02;;;;;;;3.92;3.52;;;14.90;99.90;;;;;;1971371;71;21026;-80
2021/07/22 02:42:28;;;;;;;6.78;4.05;;;14.90;99.90;;;;;;1970212;73;21104;-80
2021/07/22 02:44:54;;;;;;;5.83;4.65;;;14.90;99.90;;;;;;1968004;73;20991;-80
2021/07/22 02:47:20;;;;;;;9.28;4.15;;;15.00;99.90;;;;;;1968044;73;21147;-80
2021/07/22 02:49:47;;;;;;;6.05;4.00;;;14.90;99.90;;;;;;1968060;73;21127;-80
2021/07/22 02:52:13;;;;;;;4.78;3.90;;;14.90;99.90;;;;;;1968060;73;21062;-80
2021/07/22 02:54:39;;;;;;;5.35;4.60;;;14.80;99.90;;;;;;1967712;73;21070;-80
2021/07/22 02:57:05;;;;;;;6.62;4.03;;;14.80;99.90;;;;;;1967997;73;21136;-80
2021/07/22 02:59:31;;;;;;;5.15;3.77;;;14.80;99.90;;;;;;1967860;73;21053;-80
2021/07/22 03:01:57;;;;;;;9.28;3.83;;;14.70;99.90;;;;;;1967866;73;21062;-80
2021/07/22 03:04:23;;;;;;;7.92;4.05;;;14.70;99.90;;;;;;1967903;73;21027;-80
2021/07/22 03:09:34;;;;;;;5.47;4.17;;;14.60;99.90;;;;;;1968370;73;21034;-80
2021/07/22 03:12:00;;;;;;;6.30;4.20;;;14.60;99.90;;;;;;1968148;71;21062;-80
2021/07/22 03:14:26;;;;;;;8.63;4.90;;;14.60;99.90;;;;;;1968047;73;21059;-80
2021/07/22 03:16:52;;;;;;;6.08;5.00;;;14.50;99.90;;;;;;1968014;73;21156;-80
2021/07/22 03:19:20;;;;;;;13.78;4.92;;;14.60;99.90;;;;;;1967977;73;21084;-79
2021/07/22 03:21:46;;;;;;;8.23;5.10;;;14.60;99.90;;;;;;1967905;73;21123;-80
2021/07/22 03:24:12;;;;;;;6.97;4.58;;;14.60;99.90;;;;;;1968010;73;21059;-79
2021/07/22 03:26:38;;;;;;;8.38;4.78;;;14.60;99.90;;;;;;1967825;71;21081;-81
2021/07/22 03:29:05;;;;;;;6.28;4.37;;;14.60;99.90;;;;;;1968070;73;21049;-80
2021/07/22 03:31:31;;;;;;;8.98;5.20;;;14.60;99.90;;;;;;1967815;73;21120;-81
2021/07/22 03:33:57;;;;;;;5.58;4.42;;;14.50;99.90;;;;;;1967947;71;21031;-80
2021/07/22 03:36:23;;;;;;;14.70;4.33;;;14.50;99.90;;;;;;1967806;73;21058;-81
2021/07/22 03:38:49;;;;;;;4.40;3.90;;;14.50;99.90;;;;;;1967968;73;21176;-80
2021/07/22 03:41:15;;;;;;;7.50;4.72;;;14.50;99.90;;;;;;1966943;72;21038;-81
2021/07/22 03:43:41;;;;;;;7.45;4.30;;;14.40;99.90;;;;;;1967471;73;21031;-79
2021/07/22 03:46:08;;;;;;;5.60;4.03;;;14.40;99.90;;;;;;1968208;73;21070;-80
2021/07/22 03:48:34;;;;;;;8.10;4.67;;;14.40;99.90;;;;;;1968331;73;21062;-81
2021/07/22 03:51:00;;;;;;;4.62;4.17;;;14.40;99.90;;;;;;1968285;73;21434;-81
2021/07/22 03:53:26;;;;;;;5.90;4.25;;;14.40;99.90;;;;;;1968224;73;21424;-81
2021/07/22 03:55:56;;;;;;;5.15;3.85;;;14.40;99.90;;;;;;1968308;73;21070;-80
2021/07/22 03:58:21;;;;;;;5.50;4.20;;;14.40;99.90;;;;;;1968190;73;21120;-81
2021/07/22 04:00:49;;;;;;;13.08;4.37;;;14.40;99.90;;;;;;1968336;73;21596;-81
2021/07/22 04:03:15;;;;;;;4.80;4.17;;;14.40;99.90;;;;;;1965403;72;21488;-81
2021/07/22 04:05:41;;;;;;;7.97;4.58;;;14.40;99.90;;;;;;1968153;73;20999;-81
2021/07/22 04:08:07;;;;;;;6.35;4.25;;;14.40;99.90;;;;;;1968132;73;21499;-81
2021/07/22 04:10:33;;;;;;;7.90;4.87;;;14.50;99.90;;;;;;1965313;73;21035;-81
2021/07/22 04:12:59;;;;;;;7.83;4.10;;;14.40;99.90;;;;;;1971374;73;21583;-81
2021/07/22 04:15:26;;;;;;;5.28;4.22;;;14.40;99.90;;;;;;1971617;73;21080;-81
2021/07/22 04:17:52;;;;;;;7.35;4.08;;;14.40;99.90;;;;;;1971705;73;21037;-80
2021/07/22 04:20:18;;;;;;;4.55;4.15;;;14.50;99.90;;;;;;1971829;71;21087;-81
2021/07/22 04:22:44;;;;;;;5.22;4.33;;;14.40;99.90;;;;;;1971859;72;21003;-81
2021/07/22 04:25:10;;;;;;;9.40;4.83;;;14.50;99.90;;;;;;1971874;73;21069;-81
2021/07/22 04:27:36;;;;;;;7.75;4.55;;;14.50;99.90;;;;;;1971767;73;21003;-81
2021/07/22 04:30:02;;;;;;;5.95;4.33;;;14.50;99.90;;;;;;1971503;73;21077;-81
2021/07/22 04:32:28;;;;;;;5.85;4.40;;;14.50;99.90;;;;;;1971578;71;20999;-81
2021/07/22 04:34:55;;;;;;;5.33;4.35;;;14.60;99.90;;;;;;1971540;73;20999;-81
2021/07/22 04:37:21;;;;;;;15.05;4.92;;;14.60;99.90;;;;;;1971750;73;21079;-82
2021/07/22 04:39:47;;;;;;;6.22;4.95;;;14.60;99.90;;;;;;1971680;73;21043;-81
2021/07/22 04:42:13;;;;;;;9.50;4.70;;;14.70;99.90;;;;;;1971385;71;21060;-81
2021/07/22 04:44:39;;;;;;;6.83;4.78;;;14.80;99.90;;;;;;1969694;73;21019;-82
2021/07/22 04:47:05;;;;;;;9.10;4.40;;;14.80;99.90;;;;;;1968483;72;21061;-82
2021/07/22 04:49:31;;;;;;;7.83;4.97;;;14.80;99.90;;;;;;1968075;73;21062;-81
2021/07/22 04:51:58;;;;;;;7.15;4.65;;;14.80;99.90;;;;;;1968087;73;21272;-82
2021/07/22 04:54:24;;;;;;;7.33;5.42;;;14.80;99.90;;;;;;1968026;73;21066;-81
2021/07/22 04:56:50;;;;;;;7.65;4.55;;;14.90;99.90;;;;;;1968019;71;21031;-81
2021/07/22 04:59:16;;;;;;;5.92;4.42;;;15.00;99.90;;;;;;1968038;73;21033;-82
2021/07/22 05:01:42;;;;;;;5.92;4.42;;;15.10;99.90;;;;;;1968163;73;21208;-82
2021/07/22 05:04:09;;;;;;;6.85;4.80;;;15.20;99.90;;;;;;1968157;73;21086;-82
2021/07/22 05:06:35;;;;;;;5.70;4.33;;;15.30;99.90;;;;;;1968129;73;21056;-81
2021/07/22 05:09:01;;;;;;;9.65;4.58;;;15.40;99.90;;;;;;1968138;73;21052;-81
2021/07/22 05:11:27;;;;;;;7.05;4.80;;;15.50;99.90;;;;;;1968055;73;21107;-82
2021/07/22 05:13:53;;;;;;;11.30;4.42;;;15.60;99.90;;;;;;1968055;73;21497;-81
2021/07/22 05:16:20;;;;;;;6.72;4.65;;;15.80;99.90;;;;;;1968023;73;21502;-80
2021/07/22 05:18:47;;;;;;;9.38;5.80;;;16.00;99.90;;;;;;1968321;73;21034;-81
2021/07/22 05:21:13;;;;;;;10.18;6.28;;;16.10;99.90;;;;;;1968419;71;21130;-81
2021/07/22 05:23:42;;;;;;;7.78;5.28;;;15.80;99.90;;;;;;1971176;73;21105;-81
2021/07/22 05:26:11;;;;;;;11.93;6.15;;;16.00;99.90;;;;;;1968019;73;21430;-80
2021/07/22 05:28:37;;;;;;;7.37;5.62;;;16.10;99.90;;;;;;1968196;73;21057;-80
2021/07/22 05:31:03;;;;;;;8.80;5.47;;;16.10;99.90;;;;;;1967994;73;21058;-81
2021/07/22 05:33:29;;;;;;;10.53;5.60;;;16.20;99.90;;;;;;1968020;73;21113;-81
2021/07/22 05:35:55;;;;;;;7.60;5.85;;;16.20;99.90;;;;;;1967967;73;21027;-80
2021/07/22 05:41:06;;;;;;;7.97;6.10;;;16.70;99.90;;;;;;1967892;73;21093;-80
2021/07/22 05:43:32;;;;;;;7.28;6.45;;;16.70;99.90;;;;;;1967831;73;21123;-78
2021/07/22 05:45:58;;;;;;;9.70;6.37;;;16.80;99.90;;;;;;1967863;73;21066;-79
2021/07/22 05:48:24;;;;;;;9.83;6.53;;;16.80;99.90;;;;;;1967872;73;21132;-77
2021/07/22 05:50:50;;;;;;;17.80;5.97;;;16.80;99.90;;;;;;1967939;73;21143;-80
2021/07/22 05:53:16;;;;;;;10.03;6.22;;;17.20;99.90;;;;;;1967950;73;21540;-80
2021/07/22 05:55:42;;;;;;;8.30;5.75;;;18.30;99.90;;;;;;1968503;73;21027;-80
2021/07/22 05:58:08;;;;;;;11.30;5.97;;;19.30;99.90;;;;;;1968254;71;21081;-79
2021/07/22 06:00:37;;;;;;;7.05;5.15;;;19.60;99.90;;;;;;1968055;73;21022;-79
2021/07/22 06:03:02;;;;;;;7.95;4.87;;;20.00;99.90;;;;;;1968098;72;21128;-79
2021/07/22 06:05:29;;;;;;;12.47;6.22;;;20.80;99.90;;;;;;1967916;73;21054;-80
2021/07/22 06:07:57;;;;;;;8.28;5.47;;;21.30;99.90;;;;;;1968002;73;21077;-79
2021/07/22 06:10:23;;;;;;;6.53;5.12;;;21.80;99.90;;;;;;1968098;73;21475;-81
2021/07/22 06:12:49;;;;;;;12.82;4.75;;;22.50;99.90;;;;;;1967861;73;21662;-79
2021/07/22 06:15:15;;;;;;;11.00;4.78;;;23.10;99.90;;;;;;1967956;73;21445;-80
2021/07/22 06:17:41;;;;;;;8.65;5.42;;;23.10;99.90;;;;;;1968096;73;21473;-79
2021/07/22 06:20:07;;;;;;;9.60;4.90;;;23.20;99.90;;;;;;1967871;73;21466;-80
2021/07/22 06:22:33;;;;;;;12.58;5.00;;;23.10;99.90;;;;;;1968071;73;21552;-80
2021/07/22 06:25:00;;;;;;;7.08;5.20;;;24.00;99.90;;;;;;1967937;73;21519;-80
2021/07/22 06:27:26;;;;;;;7.95;4.83;;;24.40;99.90;;;;;;1968101;73;21462;-79
2021/07/22 06:29:52;;;;;;;10.95;5.30;;;24.40;99.90;;;;;;1967849;71;21162;-80
2021/07/22 06:32:18;;;;;;;7.03;4.75;;;23.90;99.90;;;;;;1966685;71;21066;-81
2021/07/22 06:34:44;;;;;;;8.88;5.35;;;23.40;99.90;;;;;;1966924;73;21116;-79
2021/07/22 06:37:10;;;;;;;9.48;5.58;;;23.20;99.90;;;;;;1968033;71;21062;-80
2021/07/22 06:39:36;;;;;;;10.65;5.37;;;23.30;99.90;;;;;;1967930;73;21058;-79
2021/07/22 06:42:03;;;;;;;9.30;5.03;;;22.90;99.90;;;;;;1968169;73;21027;-80
2021/07/22 06:44:29;;;;;;;7.78;5.20;;;22.80;99.90;;;;;;1967907;73;21058;-80
2021/07/22 06:46:55;;;;;;;15.32;5.35;;;22.60;99.90;;;;;;1964680;72;21058;-80
2021/07/22 06:49:21;;;;;;;9.50;6.10;;;22.60;99.90;;;;;;1965403;72;21141;-80
2021/07/22 06:51:51;;;;;;;10.43;6.25;;;22.20;99.90;;;;;;1959114;73;21115;-80
2021/07/22 06:54:17;;;;;;;;;;;22.20;99.90;;;;;;1968563;73;21077;-80
2021/07/22 06:56:43;;;;;;;9.70;6.20;;;22.70;99.90;;;;;;1959492;73;20331;-81
2021/07/22 06:59:09;;;;;;;8.85;5.97;;;22.90;99.90;;;;;;1966894;73;21555;-81
2021/07/22 07:01:36;;;;;;;7.28;5.40;;;22.70;99.90;;;;;;1967290;73;21493;-81
2021/07/22 07:04:04;;;;;;;9.60;6.42;;;22.90;99.90;;;;;;1968080;73;21050;-80
2021/07/22 07:06:31;;;;;;;10.75;6.25;;;22.20;99.90;;;;;;1968017;73;21551;-80
2021/07/22 07:08:57;;;;;;;7.28;5.22;;;22.80;99.90;;;;;;1968038;73;21102;-80
2021/07/22 07:11:23;;;;;;;10.28;4.95;;;23.20;99.90;;;;;;1968041;73;21128;-81
2021/07/22 07:13:49;;;;;;;8.48;5.42;;;24.00;99.90;;;;;;1970373;73;21059;-80
2021/07/22 07:16:15;;;;;;;8.38;5.42;;;24.10;99.90;;;;;;1971864;73;21003;-80
2021/07/22 07:18:41;;;;;;;14.20;4.95;;;24.60;99.90;;;;;;1970033;71;21029;-80
2021/07/22 07:21:07;;;;;;;7.33;4.47;;;25.60;99.90;;;;;;1968477;73;21116;-80
2021/07/22 07:23:34;;;;;;;12.75;4.95;;;26.20;99.90;;;;;;1968035;73;21167;-80
2021/07/22 07:26:00;;;;;;;8.13;5.12;;;26.70;99.90;;;;;;1967973;73;21093;-81
2021/07/22 07:28:26;;;;;;;6.80;4.97;;;26.90;99.90;;;;;;1968011;71;21046;-81
2021/07/22 07:30:52;;;;;;;7.00;5.10;;;26.70;99.90;;;;;;1967891;73;21063;-81
2021/07/22 07:33:18;;;;;;;8.70;4.87;;;25.40;99.90;;;;;;1968068;73;21132;-81
2021/07/22 07:35:44;;;;;;;8.20;4.97;;;25.00;99.90;;;;;;1967878;73;21061;-81
2021/07/22 07:38:10;;;;;;;10.65;4.70;;;25.90;99.90;;;;;;1968209;72;21066;-82
2021/07/22 07:40:36;;;;;;;8.55;4.60;;;26.40;99.90;;;;;;1968162;73;21438;-81
2021/07/22 07:43:03;;;;;;;6.60;4.80;;;26.90;99.90;;;;;;1968234;73;21418;-81
2021/07/22 07:45:29;;;;;;;14.23;4.92;;;27.60;99.90;;;;;;1968068;73;21081;-81
2021/07/22 07:47:55;;;;;;;7.45;4.35;;;27.60;99.90;;;;;;1968216;73;21123;-81
2021/07/22 07:50:21;;;;;;;13.90;4.90;;;27.70;99.90;;;;;;1968144;73;21166;-82
2021/07/22 07:52:48;;;;;;;7.58;4.37;;;27.60;99.90;;;;;;1968127;73;21054;-82
2021/07/22 07:55:14;;;;;;;15.43;4.72;;;27.00;99.90;;;;;;1968214;73;21026;-82
2021/07/22 07:57:40;;;;;;;11.68;4.15;;;26.70;99.90;;;;;;1968242;71;21090;-82
2021/07/22 08:00:06;;;;;;;19.07;4.60;;;27.20;99.90;;;;;;1968134;73;21054;-82
2021/07/22 08:02:32;;;;;;;6.33;4.20;;;27.20;99.90;;;;;;1968051;73;21027;-81
2021/07/22 08:04:58;;;;;;;11.05;4.28;;;27.20;99.90;;;;;;1968179;72;21050;-82
2021/07/22 08:07:24;;;;;;;12.58;5.08;;;26.00;99.90;;;;;;1968085;73;21054;-83
2021/07/22 08:09:50;;;;;;;11.20;5.28;;;25.50;99.90;;;;;;1968053;73;21119;-81
2021/07/22 08:12:17;;;;;;;10.20;5.12;;;25.60;99.90;;;;;;1968132;73;21026;-82
2021/07/22 08:14:43;;;;;;;8.65;4.50;;;25.80;99.90;;;;;;1967952;73;21058;-81
2021/07/22 08:17:09;;;;;;;8.45;4.42;;;25.80;99.90;;;;;;1968183;73;21121;-81
2021/07/22 08:19:36;;;;;;;7.53;4.85;;;26.60;99.90;;;;;;1968025;73;21096;-81
2021/07/22 08:22:02;;;;;;;6.35;4.65;;;26.00;99.90;;;;;;1968204;73;21035;-80
2021/07/22 08:24:28;;;;;;;8.00;4.17;;;26.50;99.90;;;;;;1968012;73;21054;-81
2021/07/22 08:26:54;;;;;;;11.25;4.67;;;27.10;99.90;;;;;;1968162;73;21045;-80
2021/07/22 08:29:20;;;;;;;8.48;5.35;;;27.10;99.90;;;;;;1968094;73;21166;-82
2021/07/22 08:31:46;;;;;;;7.60;4.50;;;26.80;99.90;;;;;;1967964;71;21043;-84
2021/07/22 08:34:15;;;;;;;9.30;5.22;;;26.40;99.90;;;;;;1967974;71;21069;-83
2021/07/22 08:36:40;;;;;;;15.45;5.65;;;25.40;99.90;;;;;;1967868;72;21513;-83
2021/07/22 08:39:06;;;;;;;11.38;5.03;;;25.50;99.90;;;;;;1968115;73;21473;-84
2021/07/22 08:41:32;;;;;;;7.90;4.95;;;25.80;99.90;;;;;;1966308;72;21147;-82
2021/07/22 08:43:58;;;;;;;8.15;5.08;;;25.40;99.90;;;;;;1969171;73;21554;-83
2021/07/22 08:46:25;;;;;;;7.55;5.10;;;26.20;99.90;;;;;;1969334;73;21425;-82
2021/07/22 08:48:51;;;;;;;10.80;5.80;;;26.80;99.90;;;;;;1968256;73;21042;-81
2021/07/22 08:51:17;;;;;;;8.30;5.22;;;26.90;99.90;;;;;;1968102;73;21065;-82
2021/07/22 08:53:43;;;;;;;14.93;5.47;;;27.10;99.90;;;;;;1968175;73;21066;-83
2021/07/22 08:56:09;;;;;;;11.63;5.55;;;26.80;99.90;;;;;;1968098;73;21131;-82
2021/07/22 08:58:35;;;;;;;10.00;5.28;;;26.60;99.90;;;;;;1968020;71;21091;-82
2021/07/22 09:01:04;;;;;;;8.18;4.97;;;26.50;99.90;;;;;;1968288;71;21132;-82
2021/07/22 09:03:30;;;;;;;12.43;5.20;;;26.30;99.90;;;;;;1965424;72;21149;-82
2021/07/22 09:05:56;;;;;;;8.30;4.90;;;26.00;99.90;;;;;;1968341;73;21120;-83
2021/07/22 09:08:23;;;;;;;11.38;4.58;;;26.40;99.90;;;;;;1967639;72;21131;-82
2021/07/22 09:10:49;;;;;;;10.88;4.95;;;26.70;99.90;;;;;;1968334;73;21074;-84
2021/07/22 09:13:15;;;;;;;22.02;5.90;;;26.60;99.90;;;;;;1965329;72;21063;-83
2021/07/22 09:15:44;;;;;;;7.95;4.95;;;26.40;99.90;;;;;;1968451;73;21059;-83
2021/07/22 09:18:09;;;;;;;7.35;5.17;;;25.80;99.90;;;;;;1967622;73;21035;-83
2021/07/22 09:20:35;;;;;;;8.30;5.33;;;25.70;99.90;;;;;;1968128;73;21123;-82
2021/07/22 09:23:03;;;;;;;9.30;4.65;;;26.40;99.90;;;;;;1968099;73;21100;-83
2021/07/22 09:25:29;;;;;;;7.33;4.25;;;27.10;99.90;;;;;;1968111;72;21430;-81
2021/07/22 09:27:55;;;;;;;4.83;3.87;;;27.10;99.90;;;;;;1968022;73;21466;-83
2021/07/22 09:30:21;;;;;;;12.05;4.22;;;27.00;99.90;;;;;;1968162;73;21462;-84
2021/07/22 09:32:48;;;;;;;18.45;4.45;;;27.00;99.90;;;;;;1968094;73;21470;-84
2021/07/22 09:35:14;;;;;;;11.40;4.30;;;27.40;99.90;;;;;;1968210;73;21115;-83
2021/07/22 09:37:40;;;;;;;5.80;3.60;;;27.60;99.90;;;;;;1968251;73;21101;-84
2021/07/22 09:40:08;;;;;;;4.65;3.62;;;27.70;99.90;;;;;;1968159;73;21128;-84
2021/07/22 09:42:34;;;;;;;4.28;3.47;;;28.00;99.90;;;;;;1968625;72;21119;-83
2021/07/22 09:45:00;;;;;;;5.37;3.80;;;27.50;99.90;;;;;;1931296;73;21155;-83
2021/07/22 09:47:28;;;;;;;4.17;2.62;;;27.70;99.90;;;;;;1968158;72;21066;-83
2021/07/22 09:49:56;;;;;;;5.12;3.30;;;27.90;99.90;;;;;;1930851;73;21543;-83
2021/07/22 09:52:22;;;;;;;3.58;3.20;;;28.00;99.90;;;;;;1968240;73;21070;-84
2021/07/22 09:54:48;;;;;;;9.10;3.67;;;28.20;99.90;;;;;;1968108;72;21075;-84
2021/07/22 09:57:14;;;;;;;8.20;3.67;;;28.60;99.90;;;;;;1968068;73;21058;-84
2021/07/22 09:59:40;;;;;;;4.90;3.35;;;28.30;99.90;;;;;;1968023;73;21248;-85
2021/07/22 10:02:06;;;;;;;6.05;3.55;;;27.80;99.90;;;;;;1967972;73;21139;-84
2021/07/22 10:04:32;;;;;;;5.17;3.83;;;27.10;99.90;;;;;;1967945;71;21031;-84
2021/07/22 10:07:00;;;;;;;6.47;3.85;;;27.50;99.90;;;;;;1967954;73;21066;-84
2021/07/22 10:09:26;;;;;;;8.20;3.65;;;27.80;99.90;;;;;;1968088;73;21062;-82
2021/07/22 10:11:52;;;;;;;4.50;3.42;;;27.50;99.90;;;;;;1968067;72;21058;-82
2021/07/22 10:14:22;;;;;;;5.92;3.58;;;27.90;99.90;;;;;;1967982;71;21039;-83
2021/07/22 10:16:46;;;;;;;12.00;4.08;;;27.70;99.90;;;;;;1966724;73;21057;-84
2021/07/22 10:19:12;;;;;;;5.47;3.83;;;28.20;99.90;;;;;;1967972;72;21062;-82
2021/07/22 10:21:38;;;;;;;7.37;4.25;;;28.10;99.90;;;;;;1967994;73;21120;-82
2021/07/22 10:24:04;;;;;;;10.63;3.98;;;28.10;99.90;;;;;;1968149;73;21059;-82
2021/07/22 10:26:30;;;;;;;9.18;4.12;;;28.20;99.90;;;;;;1968384;73;21109;-81
2021/07/22 10:28:57;;;;;;;12.10;4.00;;;28.20;99.90;;;;;;1968077;73;21054;-83
2021/07/22 10:31:23;;;;;;;5.65;3.83;;;27.60;99.90;;;;;;1968145;73;21127;-87
2021/07/22 10:33:49;;;;;;;4.78;3.35;;;27.70;99.90;;;;;;1968227;73;21039;-84
2021/07/22 10:36:15;;;;;;;8.25;3.87;;;28.30;99.90;;;;;;1968358;71;21061;-79
2021/07/22 10:38:42;;;;;;;4.90;3.50;;;28.10;99.90;;;;;;1968739;73;21066;-78
2021/07/22 10:41:08;;;;;;;5.28;3.85;;;28.40;99.90;;;;;;1967982;73;21066;-78
2021/07/22 10:43:38;;;;;;;7.87;4.20;;;28.90;99.90;;;;;;1968020;73;21034;-78
2021/07/22 10:46:04;;;;;;;4.75;3.70;;;28.80;99.90;;;;;;1968148;73;21524;-78
2021/07/22 10:48:30;;;;;;;7.22;4.10;;;28.50;99.90;;;;;;1967997;73;21582;-78
2021/07/22 10:50:56;;;;;;;5.03;3.72;;;28.40;99.90;;;;;;1967084;72;21177;-79
2021/07/22 10:53:22;;;;;;;5.62;4.10;;;28.50;99.90;;;;;;1963005;73;21106;-77
2021/07/22 10:55:49;;;;;;;7.62;4.10;;;28.80;99.90;;;;;;1967790;73;21062;-79
2021/07/22 10:58:15;;;;;;;6.55;3.65;;;28.90;99.90;;;;;;1968091;71;21201;-79
2021/07/22 11:00:41;;;;;;;14.23;4.20;;;28.60;99.90;;;;;;1967867;73;21066;-78
2021/07/22 11:03:07;;;;;;;5.87;3.90;;;28.50;99.90;;;;;;1968104;73;21077;-78
2021/07/22 11:05:34;;;;;;;6.05;4.20;;;28.40;99.90;;;;;;1966781;73;21057;-80
2021/07/22 11:08:00;;;;;;;5.62;3.98;;;28.40;99.90;;;;;;1967948;73;21144;-79
2021/07/22 11:10:26;;;;;;;5.83;3.62;;;28.50;99.90;;;;;;1968045;73;21041;-79
2021/07/22 11:12:55;;;;;;;14.65;3.95;;;28.90;99.90;;;;;;1967899;71;21050;-78
2021/07/22 11:15:20;;;;;;;6.75;4.45;;;29.40;99.90;;;;;;1967434;72;21595;-79
2021/07/22 11:17:47;;;;;;;8.43;4.15;;;29.40;99.90;;;;;;1962566;72;21071;-78
2021/07/22 11:20:13;;;;;;;5.45;4.25;;;28.70;99.90;;;;;;1967781;73;21073;-78
2021/07/22 11:22:39;;;;;;;5.00;3.85;;;28.70;99.90;;;;;;1968120;73;21026;-79
2021/07/22 11:25:05;;;;;;;5.47;4.20;;;28.90;99.90;;;;;;1967928;73;21103;-79
2021/07/22 11:27:32;;;;;;;9.33;4.33;;;28.90;99.90;;;;;;1967925;72;21547;-78
2021/07/22 11:30:00;;;;;;;6.40;3.70;;;28.80;99.90;;;;;;1967914;71;21441;-78
2021/07/22 11:32:26;;;;;;;5.90;4.25;;;28.60;99.90;;;;;;1967859;73;21073;-78
2021/07/22 11:34:52;;;;;;;9.73;4.40;;;28.70;99.90;;;;;;1967886;73;21217;-79
2021/07/22 11:37:18;;;;;;;12.43;5.05;;;29.40;99.90;;;;;;1967896;73;21062;-79
2021/07/22 11:39:44;;;;;;;4.72;3.83;;;29.60;99.90;;;;;;1968252;73;21536;-79
2021/07/22 11:42:11;;;;;;;5.62;4.20;;;29.40;99.90;;;;;;1967830;71;21213;-79
2021/07/22 11:44:37;;;;;;;8.75;4.55;;;28.90;99.90;;;;;;1968021;73;21070;-79
2021/07/22 11:47:03;;;;;;;8.25;4.60;;;29.10;99.90;;;;;;1967950;73;21031;-78
2021/07/22 11:49:29;;;;;;;11.88;3.90;;;28.80;99.90;;;;;;1968003;73;21065;-79
2021/07/22 11:51:55;;;;;;;8.28;5.12;;;29.10;99.90;;;;;;1967992;73;21066;-78
2021/07/22 11:54:22;;;;;;;7.15;4.15;;;29.10;99.90;;;;;;1967976;73;21516;-79
2021/07/22 11:56:49;;;;;;;7.33;4.05;;;28.90;99.90;;;;;;1968084;73;21156;-79
2021/07/22 11:59:15;;;;;;;9.45;4.30;;;29.00;99.90;;;;;;1971412;71;21140;-79
2021/07/22 12:01:41;;;;;;;5.45;4.28;;;29.10;99.90;;;;;;1971193;73;21320;-79
2021/07/22 12:04:08;;;;;;;8.00;4.55;;;29.60;99.90;;;;;;1968051;71;21461;-79
2021/07/22 12:06:34;;;;;;;14.07;5.15;;;29.50;99.90;;;;;;1967910;73;21477;-78
2021/07/22 12:09:00;;;;;;;7.10;4.40;;;29.40;99.90;;;;;;1968015;73;21493;-77
2021/07/22 12:11:26;;;;;;;7.58;4.08;;;29.20;99.90;;;;;;1967968;71;21567;-77
2021/07/22 12:13:52;;;;;;;5.65;4.60;;;29.70;99.90;;;;;;1968067;71;21066;-77
2021/07/22 12:16:18;;;;;;;16.80;4.60;;;30.00;99.90;;;;;;1968007;72;21120;-77
2021/07/22 12:18:44;;;;;;;5.50;4.78;;;30.30;99.90;;;;;;1967938;73;21042;-77
2021/07/22 12:21:10;;;;;;;7.65;4.83;;;30.40;98.70;;;;;;1968030;73;21166;-76
2021/07/22 12:23:37;;;;;;;9.78;4.70;;;30.10;99.00;;;;;;1968053;71;21084;-77
2021/07/22 12:26:03;;;;;;;10.40;4.95;;;29.80;99.90;;;;;;1967919;72;21119;-78
2021/07/22 12:28:29;;;;;;;8.25;4.50;;;29.70;99.70;;;;;;1967973;73;21062;-79
2021/07/22 12:30:55;;;;;;;9.55;4.97;;;30.30;99.70;;;;;;1968185;73;21062;-78
2021/07/22 12:33:21;;;;;;;9.85;4.75;;;30.40;99.10;;;;;;1968002;71;21101;-77
2021/07/22 12:35:47;;;;;;;8.35;4.70;;;31.20;97.80;;;;;;1967922;72;21065;-77
2021/07/22 12:38:13;;;;;;;9.18;4.80;;;31.60;98.10;;;;;;1968049;73;21162;-78
2021/07/22 12:40:39;;;;;;;12.98;4.62;;;32.10;97.20;;;;;;1967984;71;21054;-76
2021/07/22 12:43:06;;;;;;;8.20;4.95;;;32.20;97.70;;;;;;1967960;73;21070;-79
2021/07/22 12:45:32;;;;;;;6.40;4.62;;;32.60;95.70;;;;;;1967940;73;21078;-80